Pasadena, MD (21122)

4:32 PM EDT on August 21, 2014 (GMT -0400)
Old Water Oak Point Road | Change Station
CLOSE
Current Station
Personal Weather Station
Location: Pasadena, MD
Elevation: 43 ft
Nearby Weather Stations
Active Advisory: Special Statement

Elev 43 ft 39.14 °N, 76.51 °W | Updated 2 minutes ago

Mostly Cloudy
Mostly Cloudy
82.9 °F
Feels Like 91 °F
N
0.0
Wind Variable Wind from East
Gusts 9.0 mph

Today
High -- | Low -- °F
--% Chance of Precip.
Yesterday
High -- | Low -- °F
Precip. -- in
6:24 AM 7:52 PM
Waning Crescent, 12% visible
Pressure 29.98 in
Visibility 10.0 miles
Clouds Scattered Clouds 4200 ft
Mostly Cloudy 5000 ft
Mostly Cloudy 18000 ft
Mostly Cloudy 25000 ft
Heat Index 91 °F
Dew Point 76 °F
Humidity 80%
Rainfall 0.00 in
Snow Depth Not available.
UV 3 out of 12
Pollen 9.10 out of 12
Air Quality Not available.
Flu Activity Not available.
METAR KBWI 211954Z 18003KT 10SM SCT042TCU BKN050 BKN180 BKN250 30/20 A2998 RMK AO2 SLP150 TCU OHD-N T03000200

More Conditions Fewer Conditions

Pressure 29.98 in
Visibility 10.0 miles
Clouds Scattered Clouds 4200 ft
Mostly Cloudy 5000 ft
Mostly Cloudy 18000 ft
Mostly Cloudy 25000 ft
Heat Index 91 °F
Dew Point 76 °F
Humidity 80%
Rainfall 0.00 in
Snow Depth Not available.
UV 3 out of 12
Pollen 9.10 out of 12
Air Quality Not available.
Flu Activity Not available.
METAR KBWI 211954Z 18003KT 10SM SCT042TCU BKN050 BKN180 BKN250 30/20 A2998 RMK AO2 SLP150 TCU OHD-N T03000200

More Conditions Fewer Conditions

10-Day Weather Forecast

Almanac

Astronomy

Aug. 21, 2014 Rise Set
Actual Time 6:24 AM EDT 7:52 PM EDT
Civil Twilight 5:56 AM EDT 8:20 PM EDT
Nautical Twilight 5:22 AM EDT 8:54 PM EDT
Astronomical Twilight 4:46 AM EDT 9:30 PM EDT
Moon 2:53 AM EDT 5:19 PM EDT
Length of Visible Light 14h 24m
Length of Day
13h 28m
Tomorrow will be 2m 21s shorter.
Waning Crescent, 12% of the Moon is Illuminated
Today
Waning Crescent
Aug 25
New
Sep 2
First Quarter
Sep 8
Full
Sep 15
Last Quarter

Today's Extremes

State Highs State Lows

Community

WunderPhotos

Upload Photos

1,746,018 photos uploaded!

WunderBlogs® & News

Nearby

Snow Depth

Station Depth Elevation
No new snow has been reported.

Earthquake Activity

City Distance Mag. Time & Date
No recent earthquake activity has been reported nearby.
Minimum magnitude displayed is 2.5.

Coastal Water Temperatures

Place Temperature
Baltimore, MD 80.1 °F
Tolchester Beach, MD 80.1 °F
Washington, DC 78.1 °F

Nearby Weather Stations